createdAt,value
2022-08-09T00:00:00.295Z,77.00
2022-08-09T00:04:06.320Z,76.85
2022-08-09T00:08:04.183Z,76.67
2022-08-09T00:12:04.710Z,77.34
2022-08-09T00:16:02.286Z,76.64
2022-08-09T00:19:55.500Z,76.71
2022-08-09T00:23:56.010Z,77.19
2022-08-09T00:27:52.228Z,76.81
2022-08-09T00:31:59.168Z,76.44
2022-08-09T00:35:53.482Z,76.87
2022-08-09T00:40:12.431Z,76.74
2022-08-09T00:44:12.957Z,76.76
2022-08-09T00:48:15.441Z,76.29
2022-08-09T00:52:17.752Z,75.96
2022-08-09T00:56:10.504Z,76.06
2022-08-09T01:00:20.544Z,76.07
2022-08-09T01:04:38.324Z,75.76
2022-08-09T01:09:17.468Z,75.41
2022-08-09T01:13:53.448Z,75.14
2022-08-09T01:18:04.905Z,75.34
2022-08-09T01:22:43.271Z,75.80
2022-08-09T01:26:57.461Z,75.79
2022-08-09T01:30:54.849Z,75.79
2022-08-09T01:34:54.762Z,76.22
2022-08-09T01:38:49.369Z,76.24
2022-08-09T01:42:42.795Z,76.93
2022-08-09T01:46:41.910Z,76.08
2022-08-09T01:50:41.868Z,77.28
2022-08-09T01:54:41.320Z,77.46
2022-08-09T01:58:35.091Z,77.45
2022-08-09T02:02:31.760Z,77.59
2022-08-09T02:06:45.482Z,77.76
2022-08-09T02:10:51.825Z,78.21
2022-08-09T02:14:45.777Z,78.51
2022-08-09T02:18:42.769Z,79.42
2022-08-09T02:22:45.636Z,79.26
2022-08-09T02:26:40.378Z,80.27
2022-08-09T02:30:42.411Z,80.17
2022-08-09T02:34:40.469Z,80.41
2022-08-09T02:38:38.537Z,79.51
2022-08-09T02:42:38.982Z,79.27
2022-08-09T02:46:34.204Z,79.30
2022-08-09T02:50:45.267Z,78.42
2022-08-09T02:54:54.183Z,79.06
2022-08-09T02:58:49.444Z,79.08
2022-08-09T03:03:00.169Z,79.63
2022-08-09T03:06:54.258Z,79.87
2022-08-09T03:10:50.905Z,80.21
2022-08-09T03:14:45.718Z,80.42
2022-08-09T03:18:42.161Z,79.58
2022-08-09T03:22:41.735Z,80.22
2022-08-09T03:26:44.936Z,80.29
2022-08-09T03:30:38.543Z,80.22
2022-08-09T03:34:31.236Z,80.20
2022-08-09T03:38:28.836Z,80.13
2022-08-09T03:42:28.859Z,80.06
2022-08-09T03:46:29.266Z,80.09
2022-08-09T03:50:27.879Z,80.56
2022-08-09T03:54:29.527Z,80.70
2022-08-09T03:58:23.186Z,80.82
2022-08-09T04:02:19.803Z,80.52
2022-08-09T04:06:20.469Z,80.58
2022-08-09T04:10:13.406Z,80.83
2022-08-09T04:14:53.734Z,80.67
2022-08-09T04:18:21.540Z,81.21
2022-08-09T04:22:14.455Z,81.16
2022-08-09T04:26:09.762Z,80.45
2022-08-09T04:30:02.511Z,78.86
2022-08-09T04:33:59.311Z,77.60
2022-08-09T04:37:52.076Z,75.73
2022-08-09T04:41:46.170Z,74.54
2022-08-09T04:45:53.105Z,72.81
2022-08-09T04:49:54.658Z,72.12
2022-08-09T04:53:51.238Z,70.46
2022-08-09T04:57:54.139Z,69.23
2022-08-09T05:01:54.768Z,68.95
2022-08-09T05:05:52.048Z,68.56
2022-08-09T05:09:49.861Z,69.37
2022-08-09T05:13:43.090Z,72.22
2022-08-09T05:18:38.942Z,72.80
2022-08-09T05:21:55.639Z,75.14
2022-08-09T05:25:50.833Z,76.56
2022-08-09T05:29:43.958Z,76.49
2022-08-09T05:33:42.549Z,76.99
2022-08-09T05:37:44.741Z,75.69
2022-08-09T05:41:41.337Z,74.90
2022-08-09T05:45:53.035Z,75.32
2022-08-09T05:50:32.361Z,73.67
2022-08-09T05:53:59.429Z,70.59
2022-08-09T05:57:57.134Z,67.79
2022-08-09T06:01:50.598Z,64.51
2022-08-09T06:06:04.489Z,64.80
2022-08-09T06:10:02.812Z,65.16
2022-08-09T06:13:56.530Z,68.73
2022-08-09T06:17:48.889Z,71.29
2022-08-09T06:21:51.410Z,70.16
2022-08-09T06:25:55.145Z,69.50
2022-08-09T06:30:04.255Z,72.63
2022-08-09T06:34:00.742Z,71.04
2022-08-09T06:38:05.981Z,70.22
2022-08-09T06:42:09.303Z,70.67
2022-08-09T06:46:06.311Z,69.69
2022-08-09T06:50:13.861Z,66.34
2022-08-09T06:54:14.858Z,63.63
2022-08-09T06:58:07.946Z,62.33
2022-08-09T07:02:20.951Z,63.19
2022-08-09T07:06:13.988Z,64.41
2022-08-09T07:10:22.396Z,59.87
2022-08-09T07:14:26.554Z,60.42
2022-08-09T07:18:19.661Z,64.68
2022-08-09T07:22:12.270Z,63.18
2022-08-09T07:26:07.005Z,59.19
2022-08-09T07:30:01.750Z,59.97
2022-08-09T07:33:55.842Z,59.98
2022-08-09T07:37:49.311Z,61.58
2022-08-09T07:41:42.022Z,59.42
2022-08-09T07:45:40.545Z,60.16
2022-08-09T07:50:05.299Z,60.63
2022-08-09T07:54:07.321Z,62.35
2022-08-09T07:58:01.128Z,62.68
2022-08-09T08:01:56.127Z,63.20
2022-08-09T08:05:54.077Z,62.46
2022-08-09T08:09:53.642Z,61.15
2022-08-09T08:13:56.350Z,64.34
2022-08-09T08:17:58.004Z,62.84
2022-08-09T08:21:53.116Z,62.86
2022-08-09T08:25:49.903Z,63.31
2022-08-09T08:29:48.474Z,63.43
2022-08-09T08:33:52.468Z,62.28
2022-08-09T08:38:02.202Z,61.85
2022-08-09T08:42:00.130Z,61.56
2022-08-09T08:46:10.118Z,61.76
2022-08-09T08:50:18.286Z,60.35
2022-08-09T08:54:20.298Z,59.04
2022-08-09T08:58:27.116Z,57.28
2022-08-09T09:02:31.116Z,57.33
2022-08-09T09:06:24.922Z,56.20
2022-08-09T09:10:18.264Z,56.30
2022-08-09T09:14:18.158Z,55.64
2022-08-09T09:18:17.573Z,55.41
2022-08-09T09:22:26.935Z,55.78
2022-08-09T09:26:26.171Z,55.29
2022-08-09T09:30:38.200Z,55.48
2022-08-09T09:34:32.255Z,55.79
2022-08-09T09:38:42.738Z,56.13
2022-08-09T09:42:36.447Z,56.50
2022-08-09T09:46:41.920Z,56.69
2022-08-09T09:50:49.792Z,56.25
2022-08-09T09:54:48.598Z,55.65
2022-08-09T09:58:49.222Z,56.21
2022-08-09T10:02:46.859Z,55.90
2022-08-09T10:06:43.054Z,55.52
2022-08-09T10:10:36.216Z,56.07
2022-08-09T10:14:33.440Z,56.33
2022-08-09T10:18:26.253Z,55.93
2022-08-09T10:22:31.140Z,55.43
2022-08-09T10:26:26.813Z,54.53
2022-08-09T10:34:36.042Z,53.68
2022-08-09T10:38:54.443Z,53.53
2022-08-09T10:42:41.327Z,53.77
2022-08-09T10:48:12.524Z,50.52
2022-08-09T10:51:41.203Z,53.31
2022-08-09T10:55:35.827Z,52.09
2022-08-09T10:59:57.950Z,51.14
2022-08-09T11:04:30.892Z,52.00
2022-08-09T11:08:47.548Z,51.94
2022-08-09T11:12:40.726Z,50.46
2022-08-09T11:16:39.312Z,51.95
2022-08-09T11:20:45.527Z,50.92
2022-08-09T11:25:10.462Z,51.68
2022-08-09T11:29:04.620Z,50.45
2022-08-09T11:33:10.503Z,50.99
2022-08-09T11:37:07.614Z,50.25
2022-08-09T11:41:05.368Z,49.13
2022-08-09T11:44:57.968Z,49.94
2022-08-09T11:48:53.712Z,49.80
2022-08-09T11:53:15.454Z,47.34
2022-08-09T11:57:47.443Z,47.03
2022-08-09T12:02:16.860Z,47.29
2022-08-09T12:06:12.951Z,47.45
2022-08-09T12:10:08.666Z,46.66
2022-08-09T12:14:40.977Z,47.25
2022-08-09T12:18:49.009Z,46.74
2022-08-09T12:22:47.801Z,48.11
2022-08-09T12:28:58.633Z,47.35
2022-08-09T12:31:11.315Z,46.85
2022-08-09T12:35:19.352Z,46.87
2022-08-09T12:39:14.912Z,46.78
2022-08-09T12:43:07.496Z,46.05
2022-08-09T12:47:00.036Z,46.20
2022-08-09T12:50:54.822Z,46.18
2022-08-09T12:55:03.321Z,46.39
2022-08-09T12:59:11.889Z,44.92
2022-08-09T13:03:06.485Z,47.32
2022-08-09T13:07:16.941Z,46.16
2022-08-09T13:11:22.886Z,46.23
2022-08-09T13:15:17.009Z,47.08
2022-08-09T13:19:11.816Z,48.30
2022-08-09T13:24:06.617Z,48.34
2022-08-09T13:27:40.152Z,47.51
2022-08-09T13:32:16.348Z,46.32
2022-08-09T13:36:39.876Z,46.65
2022-08-09T13:41:50.896Z,45.59
2022-08-09T13:44:37.927Z,45.86
2022-08-09T13:48:34.797Z,45.89
2022-08-09T13:52:29.082Z,45.94
2022-08-09T13:56:21.707Z,44.83
2022-08-09T14:00:20.148Z,45.20
2022-08-09T14:04:13.691Z,44.49
2022-08-09T14:08:07.200Z,44.87
2022-08-09T14:12:06.123Z,43.79
2022-08-09T14:16:13.901Z,43.33
2022-08-09T14:20:07.481Z,44.16
2022-08-09T14:24:05.406Z,44.22
2022-08-09T14:28:03.163Z,44.11
2022-08-09T14:31:55.644Z,43.94
2022-08-09T14:35:52.755Z,44.76
2022-08-09T14:39:48.607Z,44.96
2022-08-09T14:43:47.403Z,43.99
2022-08-09T14:47:49.597Z,44.48
2022-08-09T14:51:51.780Z,45.45
2022-08-09T14:55:51.154Z,45.48
2022-08-09T14:59:48.097Z,45.20
2022-08-09T15:03:42.191Z,45.11
2022-08-09T15:07:36.186Z,45.42
2022-08-09T15:11:29.113Z,45.92
2022-08-09T15:15:23.565Z,45.13
2022-08-09T15:19:18.277Z,46.91
2022-08-09T15:24:00.919Z,46.95
2022-08-09T15:27:25.084Z,46.80
2022-08-09T15:31:20.269Z,46.82
2022-08-09T15:35:18.301Z,46.69
2022-08-09T15:39:25.475Z,46.86
2022-08-09T15:43:36.756Z,46.19
2022-08-09T15:47:43.589Z,46.89
2022-08-09T15:52:02.785Z,47.11
2022-08-09T15:56:21.735Z,46.31
2022-08-09T16:00:24.214Z,46.61
2022-08-09T16:04:16.868Z,45.84
2022-08-09T16:08:29.662Z,45.22
2022-08-09T16:12:23.612Z,45.90
2022-08-09T16:16:19.295Z,46.17
2022-08-09T16:20:13.142Z,46.46
2022-08-09T16:24:08.810Z,46.78
2022-08-09T16:28:13.718Z,47.15
2022-08-09T16:32:18.618Z,47.46
2022-08-09T16:36:19.757Z,47.52
2022-08-09T16:40:29.463Z,48.31
2022-08-09T16:44:28.761Z,48.40
2022-08-09T16:48:41.894Z,48.71
2022-08-09T16:52:36.336Z,49.06
2022-08-09T16:56:30.697Z,48.57
2022-08-09T17:00:23.415Z,48.11
2022-08-09T17:04:25.583Z,48.19
2022-08-09T17:08:47.004Z,48.11
2022-08-09T17:12:33.460Z,48.56
2022-08-09T17:16:26.212Z,48.29
2022-08-09T17:20:29.869Z,48.41
2022-08-09T17:24:30.986Z,48.83
2022-08-09T17:28:26.763Z,48.68
2022-08-09T17:32:34.677Z,48.46
2022-08-09T17:36:27.884Z,48.87
2022-08-09T17:40:20.572Z,49.27
2022-08-09T17:44:38.230Z,49.51
2022-08-09T17:48:31.379Z,49.49
2022-08-09T17:52:24.254Z,49.91
2022-08-09T17:56:18.195Z,50.21
2022-08-09T18:00:12.439Z,52.52
2022-08-09T18:04:05.300Z,52.42
2022-08-09T18:07:58.088Z,51.88
2022-08-09T18:12:15.317Z,51.50
2022-08-09T18:16:08.693Z,50.92
2022-08-09T18:21:01.200Z,50.61
2022-08-09T18:24:15.250Z,54.17
2022-08-09T18:28:20.974Z,55.14
2022-08-09T18:32:20.903Z,49.18
2022-08-09T18:36:14.214Z,47.81
2022-08-09T18:40:18.505Z,47.82
2022-08-09T18:44:19.818Z,48.82
2022-08-09T18:48:17.693Z,50.07
2022-08-09T18:52:12.298Z,51.21
2022-08-09T18:56:05.912Z,51.93
2022-08-09T19:00:03.698Z,52.34
2022-08-09T19:04:06.391Z,52.68
2022-08-09T19:08:09.887Z,53.06
2022-08-09T19:12:04.372Z,53.27
2022-08-09T19:15:57.292Z,53.14
2022-08-09T19:19:51.567Z,53.14
2022-08-09T19:24:36.358Z,52.75
2022-08-09T19:28:05.805Z,53.01
2022-08-09T19:32:00.021Z,51.91
2022-08-09T19:35:57.835Z,51.54
2022-08-09T19:40:04.317Z,50.96
2022-08-09T19:44:02.538Z,51.20
2022-08-09T19:47:55.612Z,51.00
2022-08-09T19:51:55.685Z,51.10
2022-08-09T19:56:01.851Z,50.54
2022-08-09T20:00:02.438Z,50.03
2022-08-09T20:04:17.881Z,49.63
2022-08-09T20:08:12.489Z,49.82
2022-08-09T20:12:09.741Z,49.41
2022-08-09T20:16:38.055Z,49.62
2022-08-09T20:20:32.563Z,49.86
2022-08-09T20:24:29.705Z,49.57
2022-08-09T20:28:31.987Z,49.59
2022-08-09T20:32:33.306Z,49.55
2022-08-09T20:36:38.218Z,49.88
2022-08-09T20:40:31.008Z,49.37
2022-08-09T20:44:26.993Z,49.43
2022-08-09T20:48:22.879Z,49.27
2022-08-09T20:52:15.305Z,49.19
2022-08-09T20:56:21.271Z,49.24
2022-08-09T21:00:20.088Z,49.26
2022-08-09T21:05:52.139Z,49.20
2022-08-09T21:08:36.576Z,49.53
2022-08-09T21:16:43.696Z,49.36
2022-08-09T21:20:38.467Z,48.32
2022-08-09T21:24:33.867Z,47.98
2022-08-09T21:28:35.133Z,48.74
2022-08-09T21:32:33.587Z,48.52
2022-08-09T21:36:30.622Z,48.73
2022-08-09T21:40:30.761Z,48.48
2022-08-09T21:44:32.904Z,48.64
2022-08-09T21:48:27.863Z,48.30
2022-08-09T21:52:21.552Z,48.51
2022-08-09T21:56:34.108Z,48.64
2022-08-09T22:00:33.062Z,48.98
2022-08-09T22:04:56.940Z,49.26
2022-08-09T22:08:38.581Z,49.50
2022-08-09T22:12:38.751Z,49.81
2022-08-09T22:16:36.814Z,49.80
2022-08-09T22:20:31.476Z,49.89
2022-08-09T22:24:25.000Z,50.24
2022-08-09T22:28:29.414Z,49.99
2022-08-09T22:32:29.957Z,50.14
2022-08-09T22:36:24.066Z,50.48
2022-08-09T22:40:19.989Z,50.51
2022-08-09T22:44:13.082Z,50.30
2022-08-09T22:48:29.958Z,50.72
2022-08-09T22:52:18.534Z,50.46
2022-08-09T22:56:33.258Z,50.70
2022-08-09T23:00:25.298Z,50.76
2022-08-09T23:04:21.845Z,50.76
2022-08-09T23:08:36.998Z,50.55
2022-08-09T23:12:29.408Z,50.89
2022-08-09T23:16:22.959Z,50.70
2022-08-09T23:20:15.521Z,50.71
2022-08-09T23:24:08.554Z,50.59
2022-08-09T23:28:15.387Z,50.72
2022-08-09T23:32:08.728Z,50.85
2022-08-09T23:36:04.507Z,51.00
2022-08-09T23:39:59.105Z,51.36
2022-08-09T23:43:55.063Z,51.55
2022-08-09T23:47:47.777Z,51.32
2022-08-09T23:51:40.261Z,51.30
2022-08-09T23:55:33.310Z,51.47
2022-08-09T23:59:48.899Z,51.72
